AUA52TV LOWW-LIML
Flight info
| Callsign | AUA52TV |
|---|---|
| Flight time | 1h 7m |
| Altitude | 34000 |
| Route | OSPEN DCT ABRUK DCT SETAL DCT DETSA/N0431F330 DCT BAKOR DCT RENTA DCT ATPED DCT LUSIL |
| Aircraft | A320/M-SDE3FGHIRWY/LB1 |
Departure
| Time | 2026-04-21 20:30 |
|---|---|
| Airport | Vienna International Airport (LOWW) |
Arrival
| Time | 2026-04-21 21:37 |
|---|---|
| Airport | Milano Linate Airport (LIML) |
| Time | Latitude | Longitude | Altitude | Speed | Heading |
|---|---|---|---|---|---|
| 2026-04-21 19:55 | 48.11710 | 16.56790 | 610 ft | 0 kts | 25° |
| 2026-04-21 20:22 | 48.11669 | 16.56762 | 618 ft | 2 kts | 25° |
| 2026-04-21 20:22 | 48.11649 | 16.56743 | 623 ft | 4 kts | 64° |
| 2026-04-21 20:23 | 48.11647 | 16.56707 | 626 ft | 4 kts | 112° |
| 2026-04-21 20:23 | 48.11651 | 16.56693 | 621 ft | 0 kts | 115° |
| 2026-04-21 20:25 | 48.11643 | 16.56718 | 616 ft | 14 kts | 115° |
| 2026-04-21 20:26 | 48.11579 | 16.56923 | 618 ft | 17 kts | 118° |
| 2026-04-21 20:26 | 48.11527 | 16.57075 | 619 ft | 16 kts | 116° |
| 2026-04-21 20:26 | 48.11482 | 16.57219 | 622 ft | 15 kts | 117° |
| 2026-04-21 20:26 | 48.11445 | 16.57332 | 612 ft | 6 kts | 117° |
| 2026-04-21 20:27 | 48.11399 | 16.57386 | 621 ft | 15 kts | 183° |
| 2026-04-21 20:27 | 48.11291 | 16.57313 | 617 ft | 18 kts | 205° |
| 2026-04-21 20:27 | 48.11173 | 16.57229 | 615 ft | 14 kts | 205° |
| 2026-04-21 20:27 | 48.11147 | 16.57211 | 615 ft | 0 kts | 206° |
| 2026-04-21 20:28 | 48.11117 | 16.57190 | 616 ft | 14 kts | 205° |
| 2026-04-21 20:29 | 48.11058 | 16.57109 | 614 ft | 10 kts | 258° |
| 2026-04-21 20:29 | 48.11088 | 16.57002 | 617 ft | 18 kts | 295° |
| 2026-04-21 20:29 | 48.11266 | 16.56462 | 620 ft | 97 kts | 296° |
| 2026-04-21 20:29 | 48.11658 | 16.55269 | 620 ft | 156 kts | 294° |
| 2026-04-21 20:30 | 48.12129 | 16.53635 | 952 ft | 180 kts | 286° |
| 2026-04-21 20:30 | 48.12026 | 16.51697 | 1556 ft | 208 kts | 244° |
| 2026-04-21 20:30 | 48.10999 | 16.49965 | 2054 ft | 239 kts | 219° |
| 2026-04-21 20:30 | 48.09554 | 16.48467 | 2644 ft | 265 kts | 212° |
| 2026-04-21 20:31 | 48.07939 | 16.46979 | 3483 ft | 277 kts | 212° |
| 2026-04-21 20:31 | 48.06345 | 16.45317 | 3960 ft | 280 kts | 217° |
| 2026-04-21 20:31 | 48.04810 | 16.43489 | 5009 ft | 281 kts | 220° |
| 2026-04-21 20:31 | 48.03323 | 16.41595 | 6174 ft | 282 kts | 221° |
| 2026-04-21 20:32 | 48.01845 | 16.39657 | 7272 ft | 284 kts | 222° |
| 2026-04-21 20:32 | 48.00358 | 16.37688 | 8320 ft | 287 kts | 223° |
| 2026-04-21 20:32 | 47.98855 | 16.35701 | 9381 ft | 291 kts | 223° |
| 2026-04-21 20:32 | 47.97342 | 16.33673 | 10367 ft | 294 kts | 227° |
| 2026-04-21 20:33 | 47.96060 | 16.31290 | 11286 ft | 297 kts | 239° |
| 2026-04-21 20:33 | 47.95118 | 16.28445 | 11726 ft | 317 kts | 252° |
| 2026-04-21 20:33 | 47.94354 | 16.25262 | 12325 ft | 332 kts | 252° |
| 2026-04-21 20:33 | 47.93567 | 16.21999 | 13181 ft | 337 kts | 252° |
| 2026-04-21 20:34 | 47.92764 | 16.18696 | 14074 ft | 341 kts | 251° |
| 2026-04-21 20:34 | 47.91947 | 16.15357 | 14877 ft | 344 kts | 251° |
| 2026-04-21 20:34 | 47.91119 | 16.11990 | 15666 ft | 347 kts | 251° |
| 2026-04-21 20:34 | 47.90281 | 16.08597 | 16472 ft | 351 kts | 251° |
| 2026-04-21 20:35 | 47.89433 | 16.05175 | 17281 ft | 354 kts | 251° |
| 2026-04-21 20:35 | 47.88578 | 16.01726 | 18079 ft | 357 kts | 251° |
| 2026-04-21 20:35 | 47.87530 | 15.98353 | 18797 ft | 362 kts | 241° |
| 2026-04-21 20:35 | 47.86036 | 15.95306 | 19462 ft | 368 kts | 230° |
| 2026-04-21 20:36 | 47.84137 | 15.92726 | 20147 ft | 373 kts | 219° |
| 2026-04-21 20:36 | 47.82061 | 15.90390 | 20841 ft | 376 kts | 220° |
| 2026-04-21 20:36 | 47.79971 | 15.88035 | 21497 ft | 378 kts | 220° |
| 2026-04-21 20:36 | 47.77865 | 15.85659 | 22132 ft | 381 kts | 220° |
| 2026-04-21 20:37 | 47.75776 | 15.83303 | 22738 ft | 384 kts | 220° |
| 2026-04-21 20:37 | 47.73636 | 15.80887 | 23362 ft | 387 kts | 220° |
| 2026-04-21 20:37 | 47.71487 | 15.78459 | 23933 ft | 390 kts | 220° |
| 2026-04-21 20:37 | 47.69316 | 15.76006 | 24424 ft | 393 kts | 220° |
| 2026-04-21 20:38 | 47.67133 | 15.73547 | 24905 ft | 396 kts | 220° |
| 2026-04-21 20:38 | 47.64929 | 15.71070 | 25396 ft | 399 kts | 220° |
| 2026-04-21 20:38 | 47.62707 | 15.68582 | 25891 ft | 402 kts | 220° |
| 2026-04-21 20:38 | 47.60469 | 15.66081 | 26357 ft | 405 kts | 220° |
| 2026-04-21 20:39 | 47.58213 | 15.63563 | 26810 ft | 407 kts | 220° |
| 2026-04-21 20:39 | 47.55941 | 15.61026 | 27266 ft | 410 kts | 220° |
| 2026-04-21 20:39 | 47.53655 | 15.58469 | 27721 ft | 413 kts | 221° |
| 2026-04-21 20:39 | 47.51435 | 15.55760 | 28162 ft | 413 kts | 228° |
| 2026-04-21 20:40 | 47.49550 | 15.52567 | 28594 ft | 412 kts | 238° |
| 2026-04-21 20:40 | 47.48072 | 15.48961 | 29035 ft | 410 kts | 247° |
| 2026-04-21 20:40 | 47.47035 | 15.45041 | 29460 ft | 409 kts | 257° |
| 2026-04-21 20:40 | 47.46263 | 15.40977 | 29903 ft | 412 kts | 257° |
| 2026-04-21 20:41 | 47.45475 | 15.36892 | 30323 ft | 415 kts | 257° |
| 2026-04-21 20:41 | 47.44670 | 15.32783 | 30647 ft | 418 kts | 257° |
| 2026-04-21 20:41 | 47.43854 | 15.28650 | 30969 ft | 421 kts | 256° |
| 2026-04-21 20:41 | 47.43032 | 15.24493 | 31269 ft | 423 kts | 256° |
| 2026-04-21 20:42 | 47.42204 | 15.20308 | 31570 ft | 426 kts | 256° |
| 2026-04-21 20:42 | 47.41370 | 15.16096 | 31873 ft | 429 kts | 256° |
| 2026-04-21 20:42 | 47.40533 | 15.11866 | 32206 ft | 430 kts | 256° |
| 2026-04-21 20:42 | 47.39692 | 15.07635 | 32629 ft | 429 kts | 256° |
| 2026-04-21 20:43 | 47.38851 | 15.03409 | 33059 ft | 429 kts | 256° |
| 2026-04-21 20:43 | 47.38013 | 14.99185 | 33500 ft | 429 kts | 256° |
| 2026-04-21 20:43 | 47.37175 | 14.94963 | 33918 ft | 429 kts | 256° |
| 2026-04-21 20:43 | 47.36336 | 14.90736 | 34132 ft | 430 kts | 256° |
| 2026-04-21 20:44 | 47.35503 | 14.86562 | 34165 ft | 419 kts | 256° |
| 2026-04-21 20:44 | 47.34684 | 14.82475 | 34164 ft | 413 kts | 256° |
| 2026-04-21 20:44 | 47.33052 | 14.74385 | 34164 ft | 411 kts | 256° |
| 2026-04-21 20:45 | 47.31428 | 14.66331 | 34161 ft | 410 kts | 256° |
| 2026-04-21 20:45 | 47.29804 | 14.58283 | 34162 ft | 410 kts | 256° |
| 2026-04-21 20:46 | 47.28173 | 14.50249 | 34166 ft | 409 kts | 256° |
| 2026-04-21 20:46 | 47.26533 | 14.42224 | 34164 ft | 409 kts | 256° |
| 2026-04-21 20:47 | 47.24888 | 14.34215 | 34167 ft | 409 kts | 256° |
| 2026-04-21 20:47 | 47.23235 | 14.26211 | 34169 ft | 408 kts | 256° |
| 2026-04-21 20:48 | 47.21577 | 14.18222 | 34170 ft | 408 kts | 256° |
| 2026-04-21 20:48 | 47.19918 | 14.10248 | 34169 ft | 408 kts | 256° |
| 2026-04-21 20:49 | 47.18259 | 14.02287 | 34167 ft | 407 kts | 256° |
| 2026-04-21 20:49 | 47.16592 | 13.94340 | 34164 ft | 407 kts | 256° |
| 2026-04-21 20:50 | 47.14922 | 13.86403 | 34157 ft | 406 kts | 256° |
| 2026-04-21 20:50 | 47.13247 | 13.78486 | 34154 ft | 406 kts | 256° |
| 2026-04-21 20:51 | 47.11573 | 13.70578 | 34151 ft | 406 kts | 256° |
| 2026-04-21 20:51 | 47.09897 | 13.62677 | 34153 ft | 405 kts | 256° |
| 2026-04-21 20:52 | 47.08215 | 13.54794 | 34153 ft | 405 kts | 257° |
| 2026-04-21 20:52 | 47.06526 | 13.46924 | 34152 ft | 404 kts | 256° |
| 2026-04-21 20:53 | 47.04830 | 13.39075 | 34150 ft | 404 kts | 257° |
| 2026-04-21 20:53 | 47.03137 | 13.31237 | 34151 ft | 403 kts | 257° |
| 2026-04-21 20:54 | 47.01726 | 13.24732 | 34148 ft | 403 kts | 257° |
| 2026-04-21 20:54 | 47.00015 | 13.16867 | 34139 ft | 403 kts | 257° |
| 2026-04-21 20:55 | 46.99164 | 13.12958 | 33869 ft | 402 kts | 257° |
| 2026-04-21 20:55 | 46.98309 | 13.09055 | 33594 ft | 402 kts | 257° |
| 2026-04-21 20:55 | 46.97458 | 13.05165 | 33320 ft | 401 kts | 257° |
| 2026-04-21 20:55 | 46.96618 | 13.01335 | 33156 ft | 399 kts | 257° |
| 2026-04-21 20:56 | 46.94901 | 12.93535 | 33147 ft | 400 kts | 257° |
| 2026-04-21 20:56 | 46.93200 | 12.85845 | 33147 ft | 399 kts | 257° |
| 2026-04-21 20:57 | 46.91489 | 12.78125 | 33143 ft | 399 kts | 257° |
| 2026-04-21 20:57 | 46.89770 | 12.70412 | 33137 ft | 399 kts | 257° |
| 2026-04-21 20:58 | 46.88036 | 12.62660 | 33127 ft | 398 kts | 256° |
| 2026-04-21 20:58 | 46.86328 | 12.55025 | 33119 ft | 398 kts | 257° |
| 2026-04-21 20:59 | 46.84593 | 12.47300 | 33117 ft | 397 kts | 256° |
| 2026-04-21 20:59 | 46.82874 | 12.39689 | 33115 ft | 397 kts | 256° |
| 2026-04-21 21:00 | 46.81140 | 12.32051 | 33103 ft | 396 kts | 256° |
| 2026-04-21 21:00 | 46.79028 | 12.24598 | 33113 ft | 400 kts | 249° |
| 2026-04-21 21:01 | 46.76509 | 12.17357 | 33110 ft | 400 kts | 249° |
| 2026-04-21 21:01 | 46.73994 | 12.10133 | 33108 ft | 399 kts | 249° |
| 2026-04-21 21:02 | 46.71475 | 12.02929 | 33106 ft | 399 kts | 249° |
| 2026-04-21 21:02 | 46.68953 | 11.95741 | 33103 ft | 398 kts | 249° |
| 2026-04-21 21:03 | 46.66438 | 11.88576 | 33099 ft | 397 kts | 249° |
| 2026-04-21 21:03 | 46.63914 | 11.81423 | 33088 ft | 397 kts | 249° |
| 2026-04-21 21:04 | 46.61389 | 11.74296 | 33081 ft | 396 kts | 249° |
| 2026-04-21 21:04 | 46.58895 | 11.67185 | 33079 ft | 394 kts | 250° |
| 2026-04-21 21:05 | 46.56447 | 11.60075 | 33085 ft | 393 kts | 250° |
| 2026-04-21 21:05 | 46.54001 | 11.52974 | 33083 ft | 392 kts | 250° |
| 2026-04-21 21:06 | 46.51540 | 11.45904 | 33079 ft | 392 kts | 250° |
| 2026-04-21 21:06 | 46.49077 | 11.38858 | 33085 ft | 391 kts | 250° |
| 2026-04-21 21:07 | 46.46621 | 11.31828 | 33078 ft | 390 kts | 250° |
| 2026-04-21 21:07 | 46.44169 | 11.24823 | 33076 ft | 389 kts | 250° |
| 2026-04-21 21:08 | 46.41716 | 11.17850 | 33081 ft | 388 kts | 250° |
| 2026-04-21 21:08 | 46.39255 | 11.10896 | 33080 ft | 388 kts | 250° |
| 2026-04-21 21:09 | 46.36794 | 11.03944 | 33080 ft | 387 kts | 251° |
| 2026-04-21 21:09 | 46.34340 | 10.97006 | 33081 ft | 387 kts | 251° |
| 2026-04-21 21:10 | 46.31872 | 10.90084 | 33077 ft | 387 kts | 251° |
| 2026-04-21 21:10 | 46.29417 | 10.83176 | 33072 ft | 385 kts | 251° |
| 2026-04-21 21:11 | 46.28214 | 10.79716 | 32883 ft | 385 kts | 252° |
| 2026-04-21 21:11 | 46.27022 | 10.76259 | 32602 ft | 383 kts | 252° |
| 2026-04-21 21:11 | 46.25840 | 10.72823 | 32335 ft | 380 kts | 252° |
| 2026-04-21 21:11 | 46.24679 | 10.69464 | 32057 ft | 377 kts | 252° |
| 2026-04-21 21:12 | 46.23503 | 10.66090 | 31790 ft | 375 kts | 252° |
| 2026-04-21 21:12 | 46.22316 | 10.62705 | 31536 ft | 371 kts | 253° |
| 2026-04-21 21:12 | 46.21172 | 10.59441 | 31284 ft | 368 kts | 253° |
| 2026-04-21 21:12 | 46.20025 | 10.56160 | 31026 ft | 365 kts | 253° |
| 2026-04-21 21:13 | 46.18885 | 10.52908 | 30773 ft | 362 kts | 253° |
| 2026-04-21 21:13 | 46.17749 | 10.49681 | 30526 ft | 360 kts | 253° |
| 2026-04-21 21:13 | 46.16617 | 10.46475 | 30271 ft | 356 kts | 253° |
| 2026-04-21 21:13 | 46.15498 | 10.43294 | 29995 ft | 354 kts | 253° |
| 2026-04-21 21:14 | 46.14386 | 10.40135 | 29710 ft | 353 kts | 254° |
| 2026-04-21 21:14 | 46.13274 | 10.36985 | 29419 ft | 351 kts | 253° |
| 2026-04-21 21:14 | 46.12171 | 10.33858 | 29137 ft | 350 kts | 253° |
| 2026-04-21 21:14 | 46.11072 | 10.30741 | 28842 ft | 348 kts | 253° |
| 2026-04-21 21:15 | 46.09978 | 10.27646 | 28558 ft | 346 kts | 253° |
| 2026-04-21 21:15 | 46.08883 | 10.24556 | 28287 ft | 347 kts | 253° |
| 2026-04-21 21:15 | 46.07784 | 10.21470 | 27995 ft | 345 kts | 253° |
| 2026-04-21 21:15 | 46.06690 | 10.18400 | 27718 ft | 343 kts | 253° |
| 2026-04-21 21:16 | 46.05492 | 10.15398 | 27465 ft | 349 kts | 246° |
| 2026-04-21 21:16 | 46.03991 | 10.12608 | 27190 ft | 357 kts | 239° |
| 2026-04-21 21:16 | 46.02187 | 10.10080 | 26925 ft | 367 kts | 231° |
| 2026-04-21 21:16 | 46.00101 | 10.07895 | 26660 ft | 375 kts | 224° |
| 2026-04-21 21:17 | 45.97878 | 10.05926 | 26397 ft | 375 kts | 223° |
| 2026-04-21 21:17 | 45.95657 | 10.03974 | 26140 ft | 373 kts | 223° |
| 2026-04-21 21:17 | 45.93447 | 10.02030 | 25883 ft | 371 kts | 222° |
| 2026-04-21 21:17 | 45.91250 | 10.00089 | 25633 ft | 370 kts | 223° |
| 2026-04-21 21:18 | 45.89062 | 9.98153 | 25380 ft | 369 kts | 223° |
| 2026-04-21 21:18 | 45.86883 | 9.96227 | 25119 ft | 367 kts | 223° |
| 2026-04-21 21:18 | 45.84715 | 9.94309 | 24888 ft | 366 kts | 223° |
| 2026-04-21 21:18 | 45.82558 | 9.92400 | 24643 ft | 364 kts | 223° |
| 2026-04-21 21:19 | 45.80401 | 9.90491 | 24394 ft | 363 kts | 223° |
| 2026-04-21 21:19 | 45.78254 | 9.88594 | 24150 ft | 362 kts | 223° |
| 2026-04-21 21:19 | 45.76115 | 9.86705 | 23920 ft | 360 kts | 223° |
| 2026-04-21 21:19 | 45.73984 | 9.84826 | 23676 ft | 360 kts | 223° |
| 2026-04-21 21:20 | 45.71858 | 9.82956 | 23400 ft | 357 kts | 223° |
| 2026-04-21 21:20 | 45.69741 | 9.81095 | 23115 ft | 357 kts | 223° |
| 2026-04-21 21:20 | 45.67628 | 9.79237 | 22832 ft | 356 kts | 223° |
| 2026-04-21 21:20 | 45.65543 | 9.77412 | 22554 ft | 347 kts | 223° |
| 2026-04-21 21:21 | 45.63534 | 9.75597 | 22275 ft | 337 kts | 225° |
| 2026-04-21 21:21 | 45.61608 | 9.73724 | 22005 ft | 333 kts | 226° |
| 2026-04-21 21:21 | 45.59724 | 9.71821 | 21734 ft | 331 kts | 226° |
| 2026-04-21 21:21 | 45.57860 | 9.69912 | 21460 ft | 330 kts | 226° |
| 2026-04-21 21:22 | 45.55997 | 9.68010 | 21204 ft | 329 kts | 226° |
| 2026-04-21 21:22 | 45.54132 | 9.66126 | 20927 ft | 328 kts | 225° |
| 2026-04-21 21:22 | 45.52266 | 9.64255 | 20655 ft | 327 kts | 225° |
| 2026-04-21 21:22 | 45.50402 | 9.62398 | 20399 ft | 327 kts | 225° |
| 2026-04-21 21:23 | 45.48537 | 9.60550 | 20144 ft | 326 kts | 224° |
| 2026-04-21 21:23 | 45.46679 | 9.58711 | 19894 ft | 325 kts | 224° |
| 2026-04-21 21:23 | 45.44826 | 9.56876 | 19641 ft | 324 kts | 224° |
| 2026-04-21 21:23 | 45.42979 | 9.55046 | 19389 ft | 323 kts | 224° |
| 2026-04-21 21:24 | 45.41139 | 9.53228 | 19150 ft | 322 kts | 223° |
| 2026-04-21 21:24 | 45.39303 | 9.51417 | 18911 ft | 321 kts | 223° |
| 2026-04-21 21:24 | 45.37473 | 9.49613 | 18665 ft | 319 kts | 223° |
| 2026-04-21 21:24 | 45.35651 | 9.47819 | 18433 ft | 318 kts | 223° |
| 2026-04-21 21:25 | 45.33845 | 9.46043 | 18175 ft | 312 kts | 223° |
| 2026-04-21 21:25 | 45.31955 | 9.44516 | 17896 ft | 316 kts | 210° |
| 2026-04-21 21:25 | 45.29819 | 9.43708 | 17622 ft | 322 kts | 194° |
| 2026-04-21 21:25 | 45.27567 | 9.43708 | 17352 ft | 325 kts | 182° |
| 2026-04-21 21:26 | 45.25343 | 9.43962 | 17229 ft | 315 kts | 182° |
| 2026-04-21 21:26 | 45.23188 | 9.44205 | 17097 ft | 307 kts | 182° |
| 2026-04-21 21:26 | 45.21032 | 9.44436 | 16561 ft | 314 kts | 182° |
| 2026-04-21 21:26 | 45.18838 | 9.44659 | 16070 ft | 319 kts | 182° |
| 2026-04-21 21:27 | 45.16608 | 9.44889 | 15584 ft | 323 kts | 181° |
| 2026-04-21 21:27 | 45.14352 | 9.45126 | 15085 ft | 327 kts | 181° |
| 2026-04-21 21:27 | 45.12069 | 9.45367 | 14594 ft | 330 kts | 180° |
| 2026-04-21 21:27 | 45.09766 | 9.45609 | 14094 ft | 333 kts | 180° |
| 2026-04-21 21:28 | 45.07441 | 9.45851 | 13539 ft | 337 kts | 179° |
| 2026-04-21 21:28 | 45.05096 | 9.46096 | 12965 ft | 339 kts | 179° |
| 2026-04-21 21:28 | 45.00468 | 9.46018 | 11858 ft | 332 kts | 202° |
| 2026-04-21 21:29 | 44.98558 | 9.44247 | 11318 ft | 323 kts | 231° |
| 2026-04-21 21:29 | 44.97546 | 9.41529 | 10819 ft | 317 kts | 257° |
| 2026-04-21 21:29 | 44.97272 | 9.38468 | 10309 ft | 314 kts | 270° |
| 2026-04-21 21:29 | 44.97559 | 9.35430 | 9729 ft | 314 kts | 293° |
| 2026-04-21 21:30 | 44.98869 | 9.32987 | 9251 ft | 310 kts | 323° |
| 2026-04-21 21:30 | 45.00787 | 9.31782 | 8845 ft | 306 kts | 346° |
| 2026-04-21 21:30 | 45.02879 | 9.31368 | 8376 ft | 303 kts | 356° |
| 2026-04-21 21:30 | 45.04986 | 9.31296 | 7899 ft | 302 kts | 358° |
| 2026-04-21 21:31 | 45.07212 | 9.31225 | 7286 ft | 333 kts | 359° |
| 2026-04-21 21:31 | 45.09498 | 9.31155 | 6875 ft | 323 kts | 359° |
| 2026-04-21 21:31 | 45.11706 | 9.31111 | 6577 ft | 312 kts | 360° |
| 2026-04-21 21:31 | 45.13864 | 9.31004 | 6156 ft | 308 kts | 358° |
| 2026-04-21 21:32 | 45.15977 | 9.30782 | 5745 ft | 302 kts | 357° |
| 2026-04-21 21:32 | 45.18049 | 9.30544 | 5346 ft | 296 kts | 358° |
| 2026-04-21 21:32 | 45.20086 | 9.30323 | 4957 ft | 291 kts | 358° |
| 2026-04-21 21:32 | 45.22088 | 9.30111 | 4576 ft | 286 kts | 359° |
| 2026-04-21 21:33 | 45.24053 | 9.29902 | 4184 ft | 281 kts | 359° |
| 2026-04-21 21:33 | 45.25985 | 9.29695 | 3811 ft | 276 kts | 359° |
| 2026-04-21 21:33 | 45.27855 | 9.29493 | 3452 ft | 261 kts | 360° |
| 2026-04-21 21:33 | 45.29610 | 9.29303 | 3114 ft | 244 kts | 0° |
| 2026-04-21 21:34 | 45.31211 | 9.29128 | 2808 ft | 219 kts | 1° |
| 2026-04-21 21:34 | 45.32660 | 9.28973 | 2539 ft | 198 kts | 2° |
| 2026-04-21 21:34 | 45.33972 | 9.28832 | 2274 ft | 182 kts | 2° |
| 2026-04-21 21:34 | 45.35200 | 9.28702 | 2032 ft | 172 kts | 2° |
| 2026-04-21 21:35 | 45.36353 | 9.28578 | 1834 ft | 158 kts | 2° |
| 2026-04-21 21:35 | 45.37398 | 9.28466 | 1606 ft | 145 kts | 2° |
| 2026-04-21 21:35 | 45.38377 | 9.28362 | 1406 ft | 138 kts | 1° |
| 2026-04-21 21:35 | 45.39319 | 9.28262 | 1216 ft | 134 kts | 0° |
| 2026-04-21 21:36 | 45.40241 | 9.28157 | 1030 ft | 132 kts | 0° |
| 2026-04-21 21:36 | 45.41149 | 9.28052 | 847 ft | 130 kts | 0° |
| 2026-04-21 21:36 | 45.42052 | 9.27969 | 680 ft | 131 kts | 359° |
| 2026-04-21 21:36 | 45.42962 | 9.27868 | 488 ft | 131 kts | 359° |
| 2026-04-21 21:37 | 45.43860 | 9.27773 | 365 ft | 123 kts | 359° |
| 2026-04-21 21:37 | 45.44380 | 9.27722 | 360 ft | 100 kts | 355° |
| 2026-04-21 21:37 | 45.44902 | 9.27666 | 362 ft | 53 kts | 355° |
| 2026-04-21 21:37 | 45.45174 | 9.27636 | 360 ft | 26 kts | 355° |
| 2026-04-21 21:38 | 45.45354 | 9.27677 | 361 ft | 27 kts | 24° |
| 2026-04-21 21:38 | 45.45445 | 9.27754 | 361 ft | 8 kts | 36° |
| 2026-04-21 21:38 | 45.45495 | 9.27802 | 366 ft | 9 kts | 33° |
| 2026-04-21 21:38 | 45.45521 | 9.27817 | 365 ft | 3 kts | 3° |
| 2026-04-21 21:39 | 45.45603 | 9.27816 | 360 ft | 19 kts | 0° |
| 2026-04-21 21:39 | 45.45738 | 9.27819 | 360 ft | 19 kts | 1° |
| 2026-04-21 21:39 | 45.45873 | 9.27820 | 360 ft | 9 kts | 1° |
| 2026-04-21 21:39 | 45.45904 | 9.27853 | 362 ft | 5 kts | 58° |
| 2026-04-21 21:40 | 45.45916 | 9.27896 | 362 ft | 4 kts | 41° |
| 2026-04-21 21:40 | 45.45954 | 9.27904 | 360 ft | 6 kts | 358° |
| 2026-04-21 21:40 | 45.45966 | 9.27903 | 360 ft | 2 kts | 359° |
| 2026-04-21 21:40 | 45.45971 | 9.27903 | 360 ft | 0 kts | 359° |
| 2026-04-21 21:41 | 45.45972 | 9.27903 | 360 ft | 0 kts | 359° |